Time;durP1;ratioP1;P1;durP2;ratioP2;P2;SDS_P1;SDS_P2;PMS_P1;PMS_P2;Temp;Humidity;BMP_temperature;BMP_pressure;BME280_temperature;BME280_humidity;BME280_pressure;Samples;Min_cycle;Max_cycle;Signal;HPM_P1;HPM_P2
2021/01/02 00:00:27;;;;;;;0.00;0.00;;;3.60;99.90;;;;;;4985992;28;20042;-88
2021/01/02 00:03:38;;;;;;;2.53;2.40;;;3.60;99.90;;;;;;4970008;28;20039;-88
2021/01/02 00:06:23;;;;;;;0.00;0.00;;;3.60;99.90;;;;;;4979367;28;20074;-88
2021/01/02 00:08:52;;;;;;;0.00;0.00;;;3.60;99.90;;;;;;4985842;28;20066;-88
2021/01/02 00:11:32;;;;;;;0.00;0.00;;;3.60;99.90;;;;;;4969636;28;20109;-88
2021/01/02 00:14:15;;;;;;;0.00;0.00;;;3.60;99.90;;;;;;4969832;28;20278;-88
2021/01/02 00:17:04;;;;;;;0.00;0.00;;;3.60;99.90;;;;;;5002133;28;20047;-88
2021/01/02 00:19:49;;;;;;;1.65;1.55;;;3.60;99.90;;;;;;4985851;28;20126;-87
2021/01/02 00:22:34;;;;;;;0.00;0.00;;;3.60;99.90;;;;;;4986009;28;20483;-87
2021/01/02 00:25:04;;;;;;;0.00;0.00;;;3.60;99.90;;;;;;5001874;28;20045;-88
2021/01/02 00:27:51;;;;;;;0.00;0.00;;;3.60;99.90;;;;;;4969888;28;20107;-88
2021/01/02 00:30:44;;;;;;;1.17;1.17;;;3.60;99.90;;;;;;4985691;28;20042;-88
2021/01/02 00:33:28;;;;;;;0.00;0.00;;;3.60;99.90;;;;;;5002255;28;20047;-87
2021/01/02 00:36:11;;;;;;;0.00;0.00;;;3.60;99.90;;;;;;5003750;28;20042;-88
2021/01/02 00:38:38;;;;;;;0.00;0.00;;;3.60;99.90;;;;;;4989141;28;20053;-88
2021/01/02 00:41:07;;;;;;;0.00;0.00;;;3.60;99.90;;;;;;4973104;28;20043;-87
2021/01/02 00:43:33;;;;;;;0.00;0.00;;;3.50;99.90;;;;;;4989190;28;20039;-88
2021/01/02 00:46:00;;;;;;;0.00;0.00;;;3.50;99.90;;;;;;4973179;28;20046;-88
2021/01/02 00:48:27;;;;;;;0.00;0.00;;;3.60;99.90;;;;;;4973075;28;20031;-88
2021/01/02 00:50:56;;;;;;;0.00;0.00;;;3.50;99.90;;;;;;4988884;28;20514;-88
2021/01/02 00:53:36;;;;;;;0.00;0.00;;;3.60;99.90;;;;;;4989111;28;20042;-87
2021/01/02 00:56:28;;;;;;;0.00;0.00;;;3.60;99.90;;;;;;5006798;28;20360;-88
2021/01/02 00:59:22;;;;;;;0.03;0.03;;;3.60;99.90;;;;;;5027697;28;20288;-88
2021/01/02 01:02:08;;;;;;;0.00;0.00;;;3.60;99.90;;;;;;5011881;28;20041;-87
2021/01/02 01:04:45;;;;;;;0.00;0.00;;;3.60;99.90;;;;;;5027681;28;20045;-88
2021/01/02 01:07:17;;;;;;;0.65;0.65;;;3.60;99.90;;;;;;5027810;28;20041;-88
2021/01/02 01:09:48;;;;;;;0.25;0.25;;;3.60;99.90;;;;;;5027713;28;20046;-88
2021/01/02 01:12:16;;;;;;;0.00;0.00;;;3.50;99.90;;;;;;5027824;28;20054;-88
2021/01/02 01:14:43;;;;;;;0.00;0.00;;;3.60;99.90;;;;;;5007612;28;20070;-87
2021/01/02 01:17:19;;;;;;;0.00;0.00;;;3.50;99.90;;;;;;5008102;28;20062;-88
2021/01/02 01:19:51;;;;;;;0.00;0.00;;;3.60;99.90;;;;;;4991698;28;20045;-87
2021/01/02 01:22:23;;;;;;;0.00;0.00;;;3.50;99.90;;;;;;4991779;28;20038;-87
2021/01/02 01:25:03;;;;;;;0.00;0.00;;;3.60;99.90;;;;;;4991659;28;20042;-88
2021/01/02 01:27:53;;;;;;;0.00;0.00;;;3.60;99.90;;;;;;4991715;28;20050;-88
2021/01/02 01:30:21;;;;;;;0.00;0.00;;;3.50;99.90;;;;;;5008035;28;20042;-88
2021/01/02 01:32:59;;;;;;;0.00;0.00;;;3.60;99.90;;;;;;5007911;28;20046;-87
2021/01/02 01:35:25;;;;;;;0.00;0.00;;;3.60;99.90;;;;;;4991474;28;20034;-88
2021/01/02 01:37:54;;;;;;;0.00;0.00;;;3.50;99.90;;;;;;5008850;28;20037;-88
2021/01/02 01:40:24;;;;;;;0.00;0.00;;;3.60;99.90;;;;;;4991392;28;20038;-88
2021/01/02 01:43:36;;;;;;;0.00;0.00;;;3.50;99.90;;;;;;4991451;28;20102;-88
2021/01/02 01:46:11;;;;;;;2.90;2.67;;;3.50;99.90;;;;;;4938186;28;20069;-87
2021/01/02 01:48:55;;;;;;;0.43;0.43;;;3.50;99.90;;;;;;4991072;28;20049;-88
2021/01/02 01:51:43;;;;;;;0.00;0.00;;;3.50;99.90;;;;;;4991027;28;20050;-88
2021/01/02 01:55:00;;;;;;;0.00;0.00;;;3.50;99.90;;;;;;4974626;28;20065;-87
2021/01/02 01:57:28;;;;;;;0.00;0.00;;;3.50;99.90;;;;;;4891094;29;20049;-88
2021/01/02 01:59:56;;;;;;;0.00;0.00;;;3.50;99.90;;;;;;4876126;29;20079;-88
2021/01/02 02:02:49;;;;;;;0.00;0.00;;;3.50;99.90;;;;;;4875878;29;20052;-87
2021/01/02 02:05:23;;;;;;;11.15;1.23;;;3.50;99.90;;;;;;4891057;29;20037;-88
2021/01/02 02:08:01;;;;;;;0.00;0.00;;;3.50;99.90;;;;;;4891232;29;20049;-88
2021/01/02 02:10:32;;;;;;;0.00;0.00;;;3.50;99.90;;;;;;4891124;29;20048;-87
2021/01/02 02:13:01;;;;;;;0.00;0.00;;;3.50;99.90;;;;;;4860257;29;20056;-88
2021/01/02 02:15:29;;;;;;;0.15;0.15;;;3.50;99.90;;;;;;4891216;29;20040;-88
2021/01/02 02:18:05;;;;;;;0.00;0.00;;;3.50;99.90;;;;;;4891136;29;20045;-88
2021/01/02 02:20:33;;;;;;;0.00;0.00;;;3.50;99.90;;;;;;4891099;29;20077;-86
2021/01/02 02:23:06;;;;;;;0.00;0.00;;;3.50;99.90;;;;;;4890606;29;20081;-89
2021/01/02 02:25:45;;;;;;;57.78;4.38;;;3.50;99.90;;;;;;4890523;29;20441;-87
2021/01/02 02:28:43;;;;;;;0.00;0.00;;;3.50;99.90;;;;;;4875498;29;20055;-88
2021/01/02 02:31:08;;;;;;;0.00;0.00;;;3.40;99.90;;;;;;4887930;29;20048;-88
2021/01/02 02:33:35;;;;;;;0.00;0.00;;;3.40;99.90;;;;;;4925324;28;20070;-88
2021/01/02 02:36:02;;;;;;;0.00;0.00;;;3.40;99.90;;;;;;4973756;28;20069;-88
2021/01/02 02:38:37;;;;;;;0.00;0.00;;;3.40;99.90;;;;;;4990112;28;20041;-88
2021/01/02 02:41:09;;;;;;;0.10;0.10;;;3.40;99.90;;;;;;4990117;28;20128;-88
2021/01/02 02:43:39;;;;;;;1.45;1.17;;;3.40;99.90;;;;;;4990274;28;20085;-89
2021/01/02 02:46:08;;;;;;;0.08;0.08;;;3.30;99.90;;;;;;4989790;28;20113;-88
2021/01/02 02:48:35;;;;;;;0.05;0.05;;;3.30;99.90;;;;;;4973769;28;20042;-88
2021/01/02 02:51:04;;;;;;;0.00;0.00;;;3.30;99.90;;;;;;4989746;28;20069;-88
2021/01/02 02:53:30;;;;;;;0.50;0.50;;;3.30;99.90;;;;;;5005813;28;20482;-88
2021/01/02 02:55:56;;;;;;;0.10;0.10;;;3.30;99.90;;;;;;5017235;28;20328;-88
2021/01/02 02:58:21;;;;;;;3.70;3.03;;;3.30;99.90;;;;;;5025186;28;20080;-89
2021/01/02 03:00:47;;;;;;;0.43;0.43;;;3.30;99.90;;;;;;5025876;28;20054;-88
2021/01/02 03:03:13;;;;;;;24.35;3.45;;;3.30;99.90;;;;;;5025492;28;20042;-88
2021/01/02 03:05:40;;;;;;;1.10;0.80;;;3.30;99.90;;;;;;5025459;28;20042;-87
2021/01/02 03:08:07;;;;;;;0.00;0.00;;;3.30;99.90;;;;;;5025461;28;20034;-87
2021/01/02 03:10:33;;;;;;;0.20;0.20;;;3.30;99.90;;;;;;5025420;28;20044;-88
2021/01/02 03:12:58;;;;;;;2.40;2.20;;;3.20;99.90;;;;;;5025431;28;20042;-86
2021/01/02 03:15:26;;;;;;;0.00;0.00;;;3.20;99.90;;;;;;5025459;28;20037;-88
2021/01/02 03:17:53;;;;;;;0.17;0.17;;;3.20;99.90;;;;;;5025430;28;20064;-87
2021/01/02 03:20:19;;;;;;;0.00;0.00;;;3.10;99.90;;;;;;5025509;28;20049;-88
2021/01/02 03:22:47;;;;;;;0.20;0.20;;;3.10;99.90;;;;;;5025365;28;20041;-88
2021/01/02 03:25:15;;;;;;;0.00;0.00;;;3.10;99.90;;;;;;5025427;28;20033;-88
2021/01/02 03:27:41;;;;;;;0.00;0.00;;;3.10;99.90;;;;;;5025601;28;20133;-88
2021/01/02 03:30:09;;;;;;;0.00;0.00;;;3.00;99.90;;;;;;5020228;28;20030;-88
2021/01/02 03:32:36;;;;;;;0.70;0.10;;;3.00;99.90;;;;;;5005435;28;20068;-86
2021/01/02 03:35:05;;;;;;;0.00;0.00;;;3.00;99.90;;;;;;5005626;28;20045;-88
2021/01/02 03:37:32;;;;;;;0.00;0.00;;;3.00;99.90;;;;;;5005934;28;20124;-88
2021/01/02 03:39:58;;;;;;;1.10;1.00;;;3.00;99.90;;;;;;5005827;28;20049;-88
2021/01/02 03:42:24;;;;;;;0.00;0.00;;;3.00;99.90;;;;;;5005552;28;20042;-88
2021/01/02 03:44:49;;;;;;;1.88;0.90;;;3.00;99.90;;;;;;5005739;28;20070;-88
2021/01/02 03:47:15;;;;;;;0.88;0.30;;;3.00;99.90;;;;;;5005717;28;20046;-88
2021/01/02 03:49:41;;;;;;;0.00;0.00;;;3.00;99.90;;;;;;5005894;28;20102;-88
2021/01/02 03:52:07;;;;;;;0.00;0.00;;;2.90;99.90;;;;;;5005600;28;20061;-87
2021/01/02 03:54:34;;;;;;;0.20;0.20;;;2.90;99.90;;;;;;5005412;28;20093;-87
2021/01/02 03:56:59;;;;;;;0.00;0.00;;;2.90;99.90;;;;;;5005522;28;20078;-88
2021/01/02 03:59:28;;;;;;;0.00;0.00;;;2.90;99.90;;;;;;4989493;28;20038;-88
2021/01/02 04:01:58;;;;;;;0.90;0.90;;;2.90;99.90;;;;;;4989276;28;20137;-87
2021/01/02 04:04:24;;;;;;;0.77;0.77;;;2.90;99.90;;;;;;5005475;28;20081;-87
2021/01/02 04:06:51;;;;;;;0.45;0.45;;;3.00;99.90;;;;;;5005531;28;20042;-88
2021/01/02 04:09:20;;;;;;;0.00;0.00;;;3.00;99.90;;;;;;5006183;28;20420;-87
2021/01/02 04:11:47;;;;;;;0.00;0.00;;;3.00;99.90;;;;;;5008905;28;20077;-87
2021/01/02 04:14:13;;;;;;;0.00;0.00;;;2.90;99.90;;;;;;5009196;28;20034;-87
2021/01/02 04:16:40;;;;;;;0.03;0.03;;;3.00;99.90;;;;;;5009285;28;20041;-88
2021/01/02 04:19:07;;;;;;;1.27;1.27;;;3.00;99.90;;;;;;5009249;28;20045;-88
2021/01/02 04:21:36;;;;;;;0.00;0.00;;;2.90;99.90;;;;;;5008933;28;20046;-88
2021/01/02 04:24:02;;;;;;;0.20;0.20;;;2.90;99.90;;;;;;5008921;28;20034;-88
2021/01/02 04:26:28;;;;;;;0.00;0.00;;;2.90;99.90;;;;;;5008525;28;20066;-88
2021/01/02 04:28:55;;;;;;;0.00;0.00;;;2.90;99.90;;;;;;5009014;28;20106;-87
2021/01/02 04:31:22;;;;;;;0.47;0.47;;;2.90;99.90;;;;;;5005548;28;20082;-88
2021/01/02 04:33:48;;;;;;;0.20;0.20;;;2.80;99.90;;;;;;5005788;28;20066;-87
2021/01/02 04:36:20;;;;;;;18.40;2.53;;;2.90;99.90;;;;;;4973187;28;20073;-88
2021/01/02 04:38:46;;;;;;;0.00;0.00;;;2.80;99.90;;;;;;5005194;28;20043;-88
2021/01/02 04:41:14;;;;;;;0.00;0.00;;;2.90;99.90;;;;;;4988724;28;20043;-88
2021/01/02 04:43:51;;;;;;;2.92;0.80;;;2.80;99.90;;;;;;4989146;28;20046;-89
2021/01/02 04:46:17;;;;;;;0.00;0.00;;;2.90;99.90;;;;;;4988740;28;20038;-87
2021/01/02 04:48:45;;;;;;;0.00;0.00;;;2.80;99.90;;;;;;4972867;28;20492;-87
2021/01/02 04:51:12;;;;;;;0.00;0.00;;;2.90;99.90;;;;;;4972653;28;20055;-87
2021/01/02 04:53:39;;;;;;;0.00;0.00;;;2.80;99.90;;;;;;4972747;28;20042;-87
2021/01/02 04:56:06;;;;;;;0.00;0.00;;;2.80;99.90;;;;;;4996727;28;20073;-88
2021/01/02 04:58:35;;;;;;;0.52;0.28;;;2.80;99.90;;;;;;5027930;28;20038;-88
2021/01/02 05:01:05;;;;;;;0.00;0.00;;;2.80;99.90;;;;;;5027975;28;20045;-86
2021/01/02 05:03:36;;;;;;;0.00;0.00;;;2.80;99.90;;;;;;5027854;28;20101;-87
2021/01/02 05:06:02;;;;;;;0.00;0.00;;;2.80;99.90;;;;;;5027931;28;20062;-88
2021/01/02 05:08:31;;;;;;;1.35;1.35;;;2.80;99.90;;;;;;5027679;28;20101;-88
2021/01/02 05:11:02;;;;;;;0.80;0.80;;;2.80;99.90;;;;;;5027397;28;20054;-88
2021/01/02 05:13:30;;;;;;;2.92;2.72;;;2.80;99.90;;;;;;5027667;28;20112;-88
2021/01/02 05:16:13;;;;;;;0.63;0.63;;;2.80;99.90;;;;;;5011303;28;20088;-88
2021/01/02 05:18:51;;;;;;;0.10;0.10;;;2.80;99.90;;;;;;5028007;28;20064;-87
2021/01/02 05:21:17;;;;;;;0.00;0.00;;;2.80;99.90;;;;;;5027193;28;20042;-88
2021/01/02 05:24:02;;;;;;;0.00;0.00;;;2.80;99.90;;;;;;5027429;28;20109;-87
2021/01/02 05:26:28;;;;;;;0.70;0.70;;;2.80;99.90;;;;;;5027277;28;20042;-88
2021/01/02 05:29:10;;;;;;;1.08;1.08;;;2.80;99.90;;;;;;5027271;28;20053;-88
2021/01/02 05:31:37;;;;;;;0.00;0.00;;;2.70;99.90;;;;;;5010176;28;20146;-86
2021/01/02 05:34:11;;;;;;;0.35;0.35;;;2.80;99.90;;;;;;5007604;28;20069;-87
2021/01/02 05:36:40;;;;;;;0.45;0.40;;;2.80;99.90;;;;;;4991159;28;20129;-88
2021/01/02 05:39:09;;;;;;;0.00;0.00;;;2.80;99.90;;;;;;5007599;28;20066;-88
2021/01/02 05:41:52;;;;;;;3.95;2.72;;;2.80;99.90;;;;;;5007399;28;20039;-88
2021/01/02 05:44:18;;;;;;;0.00;0.00;;;2.80;99.90;;;;;;5007375;28;20053;-87
2021/01/02 05:46:46;;;;;;;0.15;0.15;;;2.80;99.90;;;;;;5007425;28;20042;-88
2021/01/02 05:49:31;;;;;;;0.00;0.00;;;2.70;99.90;;;;;;5007423;28;20042;-88
2021/01/02 05:51:59;;;;;;;0.00;0.00;;;2.70;99.90;;;;;;5007479;28;20050;-88
2021/01/02 05:54:26;;;;;;;0.20;0.20;;;2.70;99.90;;;;;;5007113;28;20037;-86
2021/01/02 05:56:59;;;;;;;0.00;0.00;;;2.80;99.90;;;;;;5025782;28;20046;-87
2021/01/02 05:59:30;;;;;;;1.35;1.35;;;2.80;99.90;;;;;;5026972;28;20062;-87
2021/01/02 06:01:55;;;;;;;0.00;0.00;;;2.70;99.90;;;;;;5026707;28;20064;-87
2021/01/02 06:04:21;;;;;;;0.00;0.00;;;2.70;99.90;;;;;;5026833;28;20041;-87
2021/01/02 06:07:05;;;;;;;1.30;1.25;;;2.80;99.90;;;;;;5026573;28;20042;-87
2021/01/02 06:09:32;;;;;;;0.00;0.00;;;2.70;99.90;;;;;;5010424;28;20385;-88
2021/01/02 06:12:04;;;;;;;0.00;0.00;;;2.80;99.90;;;;;;5026027;28;20050;-87
2021/01/02 06:14:33;;;;;;;0.00;0.00;;;2.70;99.90;;;;;;5010413;28;20128;-88
2021/01/02 06:17:05;;;;;;;0.90;0.90;;;2.70;99.90;;;;;;5005722;28;20089;-87
2021/01/02 06:19:31;;;;;;;0.00;0.00;;;2.80;99.90;;;;;;4990962;28;20042;-88
2021/01/02 06:21:57;;;;;;;0.00;0.00;;;2.80;99.90;;;;;;4990446;28;20513;-88
2021/01/02 06:24:23;;;;;;;0.10;0.10;;;2.80;99.90;;;;;;4990442;28;20046;-88
2021/01/02 06:26:51;;;;;;;0.00;0.00;;;2.80;99.90;;;;;;4990006;28;20049;-87
2021/01/02 06:29:17;;;;;;;0.00;0.00;;;2.80;99.90;;;;;;4990231;28;20030;-88
2021/01/02 06:31:42;;;;;;;0.00;0.00;;;2.80;99.90;;;;;;4990185;28;20060;-88
2021/01/02 06:34:10;;;;;;;4.05;2.38;;;2.80;99.90;;;;;;5006489;28;20038;-87
2021/01/02 06:36:39;;;;;;;0.00;0.00;;;2.80;99.90;;;;;;5006354;28;20132;-88
2021/01/02 06:39:18;;;;;;;0.00;0.00;;;2.80;99.90;;;;;;4990003;28;20035;-87
2021/01/02 06:41:44;;;;;;;0.00;0.00;;;2.80;99.90;;;;;;5006025;28;20049;-88
2021/01/02 06:44:11;;;;;;;2.10;2.00;;;2.80;99.90;;;;;;5006323;28;20038;-87
2021/01/02 06:46:37;;;;;;;0.00;0.00;;;2.80;99.90;;;;;;4989580;28;20129;-87
2021/01/02 06:49:32;;;;;;;0.93;0.85;;;2.80;99.90;;;;;;5006289;28;20042;-88
2021/01/02 06:51:58;;;;;;;0.25;0.25;;;2.80;99.90;;;;;;5005941;28;20054;-88
2021/01/02 06:54:24;;;;;;;0.00;0.00;;;2.80;99.90;;;;;;4989952;28;20383;-88
2021/01/02 06:57:02;;;;;;;0.45;0.45;;;2.80;99.90;;;;;;5024404;28;20252;-88
2021/01/02 06:59:27;;;;;;;0.00;0.00;;;2.70;99.90;;;;;;5025584;28;20121;-86
2021/01/02 07:01:53;;;;;;;3.63;1.17;;;2.80;99.90;;;;;;5008819;28;20050;-86
2021/01/02 07:04:37;;;;;;;0.00;0.00;;;2.80;99.90;;;;;;5025622;28;20037;-89
2021/01/02 07:07:07;;;;;;;1.25;1.23;;;2.80;99.90;;;;;;5026688;28;20037;-92
2021/01/02 07:09:33;;;;;;;5.38;4.95;;;2.80;99.90;;;;;;5025969;28;20121;-87
2021/01/02 07:12:10;;;;;;;0.00;0.00;;;2.80;99.90;;;;;;5026603;28;20050;-86
2021/01/02 07:14:36;;;;;;;0.00;0.00;;;2.70;99.90;;;;;;5009052;28;20505;-87
2021/01/02 07:17:03;;;;;;;0.00;0.00;;;2.80;99.90;;;;;;5025745;28;20042;-89
2021/01/02 07:19:33;;;;;;;0.00;0.00;;;2.80;99.90;;;;;;5025400;28;20034;-90
2021/01/02 07:22:07;;;;;;;0.28;0.28;;;2.80;99.90;;;;;;5025438;28;20050;-89
2021/01/02 07:24:44;;;;;;;0.00;0.00;;;2.80;99.90;;;;;;5025349;28;20045;-87
2021/01/02 07:27:18;;;;;;;0.00;0.00;;;2.80;99.90;;;;;;5025550;28;20037;-91
2021/01/02 07:29:47;;;;;;;8.38;2.63;;;2.80;99.90;;;;;;5023866;28;20052;-87
2021/01/02 07:32:24;;;;;;;0.10;0.10;;;2.70;99.90;;;;;;5006892;28;20050;-89
2021/01/02 07:34:52;;;;;;;1.45;1.45;;;2.70;99.90;;;;;;5005753;28;20129;-87
2021/01/02 07:37:21;;;;;;;3.13;2.25;;;2.80;99.90;;;;;;5005975;28;20038;-88
2021/01/02 07:40:16;;;;;;;0.00;0.00;;;2.70;99.90;;;;;;5006226;28;20383;-87
2021/01/02 07:42:50;;;;;;;2.63;2.45;;;2.70;99.90;;;;;;5003379;28;20038;-88
2021/01/02 07:45:21;;;;;;;0.00;0.00;;;2.70;99.90;;;;;;4992218;28;20042;-88
2021/01/02 07:47:52;;;;;;;0.30;0.30;;;2.70;99.90;;;;;;5006986;28;20065;-85
2021/01/02 07:50:19;;;;;;;0.20;0.20;;;2.70;99.90;;;;;;5010551;28;20042;-89
2021/01/02 07:53:00;;;;;;;0.00;0.00;;;2.70;99.90;;;;;;5009314;28;20050;-89
2021/01/02 07:55:31;;;;;;;0.00;0.00;;;2.70;99.90;;;;;;5011455;28;20070;-87
2021/01/02 07:57:57;;;;;;;0.55;0.55;;;2.80;99.90;;;;;;5008877;28;20081;-87
2021/01/02 08:00:24;;;;;;;0.08;0.08;;;2.80;99.90;;;;;;5008439;28;20050;-88
2021/01/02 08:02:50;;;;;;;0.65;0.65;;;2.70;99.90;;;;;;5025873;28;20038;-87
2021/01/02 08:05:19;;;;;;;0.00;0.00;;;2.80;99.90;;;;;;5008847;28;20050;-92
2021/01/02 08:07:59;;;;;;;0.00;0.00;;;2.80;99.90;;;;;;5009021;28;20034;-88
2021/01/02 08:10:25;;;;;;;0.00;0.00;;;2.80;99.90;;;;;;5024965;28;20042;-90
2021/01/02 08:12:56;;;;;;;0.00;0.00;;;2.80;99.90;;;;;;5024738;28;20069;-86
2021/01/02 08:15:36;;;;;;;3.75;3.55;;;2.80;99.90;;;;;;5024586;28;20046;-86
2021/01/02 08:18:04;;;;;;;0.00;0.00;;;2.80;99.90;;;;;;5008721;28;20034;-87
2021/01/02 08:20:29;;;;;;;0.05;0.05;;;2.80;99.90;;;;;;5025213;28;20113;-86
2021/01/02 08:22:55;;;;;;;0.45;0.45;;;2.80;99.90;;;;;;5018335;28;20045;-86
2021/01/02 08:25:21;;;;;;;0.30;0.30;;;2.80;99.90;;;;;;5006276;28;20490;-87
2021/01/02 08:27:48;;;;;;;0.00;0.00;;;2.80;99.90;;;;;;5005065;28;20067;-87
2021/01/02 08:30:16;;;;;;;0.52;0.52;;;2.90;99.90;;;;;;5001278;28;20061;-86
2021/01/02 08:32:53;;;;;;;1.77;1.10;;;2.80;99.90;;;;;;4991673;28;20057;-87
2021/01/02 08:35:22;;;;;;;0.00;0.00;;;2.90;99.90;;;;;;4991331;28;20085;-92
2021/01/02 08:37:48;;;;;;;0.68;0.63;;;2.80;99.90;;;;;;4972224;28;20482;-89
2021/01/02 08:40:17;;;;;;;4.18;0.85;;;2.80;99.90;;;;;;4972020;28;20062;-89
2021/01/02 08:42:44;;;;;;;0.10;0.10;;;2.80;99.90;;;;;;5000544;28;20295;-89
2021/01/02 08:45:13;;;;;;;0.00;0.00;;;2.90;99.90;;;;;;4991412;28;20049;-88
2021/01/02 08:47:39;;;;;;;0.00;0.00;;;2.90;99.90;;;;;;4991071;28;20049;-87
2021/01/02 08:50:15;;;;;;;0.00;0.00;;;2.90;99.90;;;;;;4991502;28;20080;-91
2021/01/02 08:52:42;;;;;;;0.00;0.00;;;2.90;99.90;;;;;;5008140;28;20077;-87
2021/01/02 08:55:15;;;;;;;0.08;0.08;;;2.90;99.90;;;;;;5029630;22;20044;-89
2021/01/02 08:57:49;;;;;;;0.60;0.60;;;2.90;99.90;;;;;;5070617;28;20115;-86
2021/01/02 09:00:23;;;;;;;0.40;0.40;;;2.90;99.90;;;;;;5070945;28;20190;-94
2021/01/02 09:03:04;;;;;;;0.00;0.00;;;2.90;99.90;;;;;;5054135;28;20044;-91
2021/01/02 09:05:35;;;;;;;2.88;2.63;;;2.80;99.90;;;;;;5070181;28;20044;-85
2021/01/02 09:08:04;;;;;;;0.00;0.00;;;2.90;99.90;;;;;;5070281;28;20036;-86
2021/01/02 09:10:32;;;;;;;0.52;0.52;;;2.90;99.90;;;;;;5070185;28;20047;-88
2021/01/02 09:13:11;;;;;;;0.00;0.00;;;2.90;99.90;;;;;;5070034;28;20040;-86
2021/01/02 09:16:18;;;;;;;0.00;0.00;;;2.90;99.90;;;;;;5066462;28;20044;-86
2021/01/02 09:18:44;;;;;;;0.20;0.10;;;2.90;99.90;;;;;;4954631;28;20038;-86
2021/01/02 09:21:10;;;;;;;1.13;1.13;;;2.90;99.90;;;;;;4977340;28;20109;-86
2021/01/02 09:23:39;;;;;;;0.00;0.00;;;2.90;99.90;;;;;;4994891;28;20042;-87
2021/01/02 09:26:16;;;;;;;0.05;0.05;;;3.00;99.90;;;;;;4987042;28;20043;-86
2021/01/02 09:28:44;;;;;;;0.00;0.00;;;3.00;99.90;;;;;;4973001;28;20042;-87
2021/01/02 09:31:10;;;;;;;2.92;2.75;;;2.90;99.90;;;;;;4985838;28;20155;-86
2021/01/02 09:33:36;;;;;;;8.15;3.42;;;2.90;99.90;;;;;;4954144;28;20060;-88
2021/01/02 09:36:01;;;;;;;0.38;0.38;;;2.90;99.90;;;;;;4970381;28;20035;-88
2021/01/02 09:41:05;;;;;;;2.28;2.17;;;2.80;99.90;;;;;;5064489;28;20041;-86
2021/01/02 09:43:31;;;;;;;0.10;0.10;;;2.90;99.90;;;;;;5032526;28;20140;-85
2021/01/02 09:45:57;;;;;;;0.38;0.38;;;2.90;99.90;;;;;;5021703;28;20103;-86
2021/01/02 09:48:22;;;;;;;37.25;5.53;;;2.90;99.90;;;;;;5028980;28;20123;-86
2021/01/02 09:50:50;;;;;;;0.13;0.13;;;2.90;99.90;;;;;;5029361;28;20111;-85
2021/01/02 09:53:16;;;;;;;0.00;0.00;;;2.90;99.90;;;;;;5024563;28;20041;-87
2021/01/02 09:55:42;;;;;;;0.00;0.00;;;3.00;99.90;;;;;;5047473;28;20071;-86
2021/01/02 09:58:10;;;;;;;1.10;1.10;;;3.00;99.90;;;;;;5029343;28;20033;-88
2021/01/02 10:00:35;;;;;;;1.17;1.17;;;3.00;99.90;;;;;;5038630;28;20097;-87
2021/01/02 10:03:01;;;;;;;3.40;3.20;;;3.00;99.90;;;;;;5023495;28;20042;-86
2021/01/02 10:05:27;;;;;;;2.67;1.15;;;2.90;99.90;;;;;;5012667;28;20109;-88
2021/01/02 10:07:53;;;;;;;0.88;0.52;;;3.00;99.90;;;;;;5012494;28;20041;-87
2021/01/02 10:10:20;;;;;;;0.43;0.43;;;3.00;99.90;;;;;;5012648;28;20132;-84
2021/01/02 10:12:47;;;;;;;1.13;0.85;;;3.00;99.90;;;;;;5012571;28;20102;-86
2021/01/02 10:15:13;;;;;;;3.28;1.98;;;3.00;99.90;;;;;;5012678;28;20045;-87
2021/01/02 10:17:39;;;;;;;0.95;0.93;;;3.00;99.90;;;;;;5028966;28;20030;-87
2021/01/02 10:20:06;;;;;;;0.00;0.00;;;3.00;99.90;;;;;;5012651;28;20477;-86
2021/01/02 10:22:32;;;;;;;19.08;1.30;;;3.00;99.90;;;;;;5028692;28;20041;-89
2021/01/02 10:24:58;;;;;;;0.00;0.00;;;3.00;99.90;;;;;;5012034;28;20065;-87
2021/01/02 10:27:25;;;;;;;2.83;2.00;;;3.10;99.90;;;;;;5012477;28;20043;-86
2021/01/02 10:29:53;;;;;;;1.85;0.52;;;3.00;99.90;;;;;;5015046;28;20040;-86
2021/01/02 10:32:20;;;;;;;1.25;1.25;;;3.10;99.90;;;;;;5048525;28;20049;-86
2021/01/02 10:34:48;;;;;;;0.00;0.00;;;3.10;99.90;;;;;;5031597;28;20108;-89
2021/01/02 10:37:16;;;;;;;6.05;5.75;;;3.00;99.90;;;;;;5048209;28;20047;-87
2021/01/02 10:39:43;;;;;;;2.65;1.02;;;3.10;99.90;;;;;;5030442;28;20056;-86
2021/01/02 10:42:10;;;;;;;3.50;2.63;;;3.10;99.90;;;;;;5030799;28;20040;-87
2021/01/02 10:44:35;;;;;;;3.70;3.53;;;3.10;99.90;;;;;;5031638;28;20094;-86
2021/01/02 10:47:01;;;;;;;0.57;0.57;;;3.10;99.90;;;;;;5032109;28;20037;-87
2021/01/02 10:49:27;;;;;;;0.00;0.00;;;3.10;99.90;;;;;;5031650;28;20037;-86
2021/01/02 10:51:53;;;;;;;0.80;0.43;;;3.20;99.90;;;;;;5031387;28;20056;-87
2021/01/02 10:54:20;;;;;;;0.00;0.00;;;3.30;99.90;;;;;;5047903;28;20033;-84
2021/01/02 10:56:47;;;;;;;0.00;0.00;;;3.20;99.90;;;;;;5052170;23;20092;-86
2021/01/02 10:59:14;;;;;;;0.10;0.10;;;3.20;99.90;;;;;;5065117;28;20033;-86
2021/01/02 11:01:48;;;;;;;0.00;0.00;;;3.20;99.90;;;;;;5048324;28;20546;-86
2021/01/02 11:04:16;;;;;;;0.00;0.00;;;3.20;99.90;;;;;;5064832;28;20041;-85
2021/01/02 11:06:44;;;;;;;0.55;0.55;;;3.30;99.90;;;;;;5048587;28;20061;-86
2021/01/02 11:09:12;;;;;;;1.83;1.75;;;3.30;99.90;;;;;;5064494;22;20036;-86
2021/01/02 11:11:37;;;;;;;2.55;2.42;;;3.30;99.90;;;;;;5045073;28;20151;-86
2021/01/02 11:14:04;;;;;;;0.30;0.30;;;3.20;99.90;;;;;;5007807;28;20069;-86
2021/01/02 11:16:32;;;;;;;0.05;0.05;;;3.20;99.90;;;;;;5045119;28;20045;-85
2021/01/02 11:18:58;;;;;;;0.00;0.00;;;3.30;99.90;;;;;;5026577;28;20061;-85
2021/01/02 11:21:24;;;;;;;0.00;0.00;;;3.40;99.90;;;;;;5031091;28;20041;-85
2021/01/02 11:23:51;;;;;;;0.08;0.08;;;3.40;99.90;;;;;;5049589;28;20040;-85
2021/01/02 11:26:16;;;;;;;0.17;0.13;;;3.40;99.90;;;;;;5042592;28;20044;-86
2021/01/02 11:28:42;;;;;;;0.10;0.10;;;3.40;99.90;;;;;;5037566;28;20053;-86
2021/01/02 11:31:08;;;;;;;0.75;0.75;;;3.30;99.90;;;;;;5025887;28;20132;-86
2021/01/02 11:33:34;;;;;;;1.75;1.65;;;3.40;99.90;;;;;;5028315;28;20105;-86
2021/01/02 11:35:59;;;;;;;0.00;0.00;;;3.40;99.90;;;;;;5046804;28;20040;-85
2021/01/02 11:38:25;;;;;;;0.00;0.00;;;3.40;99.90;;;;;;5023152;28;20515;-86
2021/01/02 11:40:50;;;;;;;5.47;3.72;;;3.50;99.90;;;;;;5025749;28;20110;-85
2021/01/02 11:43:19;;;;;;;0.00;0.00;;;3.50;99.90;;;;;;5018770;28;20042;-86
2021/01/02 11:45:46;;;;;;;0.30;0.30;;;3.60;99.90;;;;;;5026166;28;20076;-86
2021/01/02 11:48:14;;;;;;;0.10;0.10;;;3.50;99.90;;;;;;5044163;28;20065;-85
2021/01/02 11:50:40;;;;;;;0.00;0.00;;;3.50;99.90;;;;;;5042797;28;20038;-84
2021/01/02 11:53:09;;;;;;;0.08;0.08;;;3.50;99.90;;;;;;5041732;28;20567;-85
2021/01/02 11:55:35;;;;;;;0.00;0.00;;;3.50;99.90;;;;;;5027430;28;20236;-86
2021/01/02 11:58:01;;;;;;;0.00;0.00;;;3.60;99.90;;;;;;5035707;28;20038;-87
2021/01/02 12:00:28;;;;;;;0.17;0.15;;;3.60;99.90;;;;;;5027035;28;20033;-87
2021/01/02 12:02:54;;;;;;;5.05;1.95;;;3.50;99.90;;;;;;5023887;28;20045;-86
2021/01/02 12:05:22;;;;;;;0.00;0.00;;;3.50;99.90;;;;;;5035703;28;20041;-87
2021/01/02 12:07:48;;;;;;;0.15;0.15;;;3.60;99.90;;;;;;5021507;28;20131;-86
2021/01/02 12:10:14;;;;;;;2.72;2.53;;;3.50;99.90;;;;;;5026102;28;20490;-87
2021/01/02 12:12:39;;;;;;;0.00;0.00;;;3.60;99.90;;;;;;5036401;28;20048;-86
2021/01/02 12:15:06;;;;;;;0.32;0.32;;;3.50;99.90;;;;;;5063208;28;20049;-86
2021/01/02 12:17:31;;;;;;;0.00;0.00;;;3.50;99.90;;;;;;5062432;28;20045;-86
2021/01/02 12:19:59;;;;;;;0.00;0.00;;;3.50;99.90;;;;;;5047261;28;20039;-88
2021/01/02 12:22:28;;;;;;;0.00;0.00;;;3.50;99.90;;;;;;5047304;28;20080;-87
2021/01/02 12:24:54;;;;;;;0.00;0.00;;;3.50;99.90;;;;;;5055350;28;20046;-88
2021/01/02 12:27:19;;;;;;;0.47;0.47;;;3.50;99.90;;;;;;5063193;28;20049;-87
2021/01/02 12:29:45;;;;;;;0.15;0.15;;;3.50;99.90;;;;;;5046753;28;20072;-86
2021/01/02 12:32:11;;;;;;;0.00;0.00;;;3.50;99.90;;;;;;5059578;28;20485;-86
2021/01/02 12:34:41;;;;;;;0.00;0.00;;;3.50;99.90;;;;;;5047855;28;20057;-86
2021/01/02 12:37:15;;;;;;;0.43;0.30;;;3.50;99.90;;;;;;5054994;28;20050;-87
2021/01/02 12:39:42;;;;;;;0.00;0.00;;;3.50;99.90;;;;;;5065707;28;20279;-86
2021/01/02 12:42:09;;;;;;;0.00;0.00;;;3.50;99.90;;;;;;5049457;28;20063;-87
2021/01/02 12:44:35;;;;;;;1.63;1.63;;;3.50;99.90;;;;;;5051084;28;20037;-87
2021/01/02 12:47:10;;;;;;;0.00;0.00;;;3.50;99.90;;;;;;5048817;28;20247;-86
2021/01/02 12:49:36;;;;;;;0.00;0.00;;;3.50;99.90;;;;;;5062591;28;20133;-86
2021/01/02 12:52:06;;;;;;;0.95;0.80;;;3.60;99.90;;;;;;5041425;28;20099;-87
2021/01/02 12:54:32;;;;;;;20.23;10.35;;;3.50;99.90;;;;;;5046052;28;20100;-85
2021/01/02 12:56:58;;;;;;;0.17;0.17;;;3.40;99.90;;;;;;5042441;28;20037;-86
2021/01/02 12:59:32;;;;;;;0.10;0.10;;;3.50;99.90;;;;;;5060801;28;20045;-86
2021/01/02 13:02:00;;;;;;;0.45;0.45;;;3.40;99.90;;;;;;5046445;28;20041;-87
2021/01/02 13:04:26;;;;;;;0.00;0.00;;;3.50;99.90;;;;;;5040942;28;20036;-87
2021/01/02 13:06:57;;;;;;;0.00;0.00;;;3.60;99.90;;;;;;5045880;28;20084;-86
2021/01/02 13:09:24;;;;;;;0.00;0.00;;;3.60;99.90;;;;;;5045319;28;20047;-86
2021/01/02 13:11:53;;;;;;;4.03;3.85;;;3.50;99.90;;;;;;5055602;28;20159;-86
2021/01/02 13:14:21;;;;;;;0.00;0.00;;;3.60;99.90;;;;;;5052430;28;20033;-87
2021/01/02 13:16:55;;;;;;;0.20;0.20;;;3.60;99.90;;;;;;5046544;28;20060;-87